Time;durP1;ratioP1;P1;durP2;ratioP2;P2;SDS_P1;SDS_P2;PMS_P1;PMS_P2;Temp;Humidity;BMP_temperature;BMP_pressure;BME280_temperature;BME280_humidity;BME280_pressure;Samples;Min_cycle;Max_cycle;Signal;HPM_P1;HPM_P2
2023/06/24 00:00:23;;;;;;;8.05;7.07;;;17.00;99.90;;;;;;6244475;23;20051;-66
2023/06/24 00:02:51;;;;;;;11.32;7.65;;;17.00;99.90;;;;;;6242909;23;20028;-66
2023/06/24 00:05:18;;;;;;;9.35;7.38;;;17.00;99.90;;;;;;6243158;23;20043;-66
2023/06/24 00:07:46;;;;;;;11.25;7.43;;;17.00;99.90;;;;;;6242382;23;20028;-66
2023/06/24 00:10:13;;;;;;;11.48;7.57;;;17.00;99.90;;;;;;6243150;23;20074;-66
2023/06/24 00:12:41;;;;;;;10.18;7.32;;;17.00;99.90;;;;;;6243106;23;20020;-66
2023/06/24 00:15:10;;;;;;;8.90;6.75;;;16.90;99.90;;;;;;6244254;22;20024;-66
2023/06/24 00:17:37;;;;;;;9.25;7.32;;;16.90;99.90;;;;;;6243280;23;20024;-67
2023/06/24 00:20:07;;;;;;;9.45;7.45;;;16.80;99.90;;;;;;6244101;23;20024;-65
2023/06/24 00:22:34;;;;;;;9.98;7.50;;;16.80;99.90;;;;;;6246138;22;20393;-65
2023/06/24 00:25:02;;;;;;;14.75;7.80;;;16.80;99.90;;;;;;6244524;23;20024;-66
2023/06/24 00:27:29;;;;;;;12.48;8.68;;;16.80;99.90;;;;;;6244786;23;20078;-66
2023/06/24 00:29:56;;;;;;;12.35;7.63;;;16.70;99.90;;;;;;6246023;23;20024;-65
2023/06/24 00:32:23;;;;;;;12.38;7.90;;;16.70;99.90;;;;;;6244836;23;20043;-65
2023/06/24 00:34:50;;;;;;;10.52;7.75;;;16.80;99.90;;;;;;6245999;23;20082;-66
2023/06/24 00:37:17;;;;;;;13.65;8.48;;;16.80;99.90;;;;;;6246462;23;20024;-66
2023/06/24 00:39:44;;;;;;;14.70;9.00;;;16.80;99.90;;;;;;6244663;23;20034;-65
2023/06/24 00:42:12;;;;;;;11.68;7.93;;;16.80;99.90;;;;;;6245697;23;20024;-65
2023/06/24 00:44:40;;;;;;;11.38;7.90;;;16.70;99.90;;;;;;6244888;23;20023;-66
2023/06/24 00:47:09;;;;;;;12.38;7.88;;;16.70;99.90;;;;;;6246235;23;20454;-66
2023/06/24 00:49:37;;;;;;;9.48;7.93;;;16.60;99.90;;;;;;6245799;22;20031;-66
2023/06/24 00:52:04;;;;;;;17.23;8.10;;;16.60;99.90;;;;;;6246240;23;20090;-66
2023/06/24 00:54:31;;;;;;;12.43;8.57;;;16.60;99.90;;;;;;6244533;23;20025;-66
2023/06/24 00:57:01;;;;;;;11.75;8.55;;;16.60;99.90;;;;;;6245432;23;20445;-66
2023/06/24 00:59:31;;;;;;;12.65;9.32;;;16.60;99.90;;;;;;6244624;23;20168;-66
2023/06/24 01:02:01;;;;;;;11.43;8.25;;;16.60;99.90;;;;;;6246412;23;20024;-66
2023/06/24 01:04:29;;;;;;;9.68;8.07;;;16.50;99.90;;;;;;6243701;23;20103;-67
2023/06/24 01:06:57;;;;;;;12.43;8.15;;;16.50;99.90;;;;;;6244145;23;20028;-66
2023/06/24 01:09:25;;;;;;;11.25;8.57;;;16.40;99.90;;;;;;6244502;23;20031;-66
2023/06/24 01:11:52;;;;;;;13.05;9.00;;;16.40;99.90;;;;;;6243708;23;20024;-65
2023/06/24 01:14:23;;;;;;;10.70;8.68;;;16.30;99.90;;;;;;6246414;23;20020;-65
2023/06/24 01:16:57;;;;;;;11.93;8.82;;;16.30;99.90;;;;;;6245913;23;20031;-66
2023/06/24 01:19:51;;;;;;;13.55;9.93;;;16.20;99.90;;;;;;6245719;23;20082;-66
2023/06/24 01:22:35;;;;;;;14.45;9.55;;;16.10;99.90;;;;;;6246195;23;20454;-66
2023/06/24 01:25:11;;;;;;;13.65;10.55;;;16.10;99.90;;;;;;6243380;23;20082;-66
2023/06/24 01:28:09;;;;;;;15.60;10.43;;;16.00;99.90;;;;;;6244140;23;20392;-66
2023/06/24 01:31:06;;;;;;;15.57;10.55;;;16.00;99.90;;;;;;6140831;22;20037;-65
2023/06/24 01:33:42;;;;;;;18.13;10.77;;;15.90;99.90;;;;;;6244146;23;20020;-66
2023/06/24 01:36:12;;;;;;;12.82;10.35;;;15.90;99.90;;;;;;6244262;23;20020;-66
2023/06/24 01:38:47;;;;;;;18.88;10.73;;;15.80;99.90;;;;;;6244875;23;20031;-66
2023/06/24 01:41:17;;;;;;;18.13;11.30;;;15.80;99.90;;;;;;6246119;23;20026;-65
2023/06/24 01:43:44;;;;;;;16.02;10.90;;;15.80;99.90;;;;;;6243390;23;20031;-66
2023/06/24 01:46:13;;;;;;;16.40;11.90;;;15.80;99.90;;;;;;6245311;23;20028;-67
2023/06/24 01:48:45;;;;;;;16.52;11.23;;;15.70;99.90;;;;;;6245821;23;20024;-66
2023/06/24 01:51:15;;;;;;;14.85;11.27;;;15.70;99.90;;;;;;6245899;23;20492;-65
2023/06/24 01:53:49;;;;;;;17.45;11.95;;;15.60;99.90;;;;;;6243499;23;20024;-66
2023/06/24 01:56:17;;;;;;;16.90;12.10;;;15.60;99.90;;;;;;6244067;23;20016;-64
2023/06/24 01:58:46;;;;;;;13.95;11.10;;;15.60;99.90;;;;;;6245187;23;20028;-65
2023/06/24 02:01:14;;;;;;;19.75;11.73;;;15.60;99.90;;;;;;6244827;23;20415;-66
2023/06/24 02:03:43;;;;;;;16.50;11.65;;;15.60;99.90;;;;;;6243950;23;20519;-65
2023/06/24 02:06:11;;;;;;;15.02;11.43;;;15.50;99.90;;;;;;6245732;23;20020;-67
2023/06/24 02:08:40;;;;;;;17.85;12.90;;;15.50;99.90;;;;;;6245091;23;20024;-65
2023/06/24 02:11:09;;;;;;;27.13;14.25;;;15.50;99.90;;;;;;6245660;23;20020;-65
2023/06/24 02:13:38;;;;;;;17.92;12.55;;;15.50;99.90;;;;;;6245009;23;20024;-66
2023/06/24 02:16:07;;;;;;;20.30;12.02;;;15.50;99.90;;;;;;6243863;23;20020;-67
2023/06/24 02:18:35;;;;;;;20.73;13.20;;;15.50;99.90;;;;;;6245722;23;20403;-66
2023/06/24 02:21:05;;;;;;;18.92;12.40;;;15.50;99.90;;;;;;6242930;23;20028;-67
2023/06/24 02:23:33;;;;;;;20.48;12.43;;;15.50;99.90;;;;;;6243813;23;20024;-66
2023/06/24 02:26:02;;;;;;;21.42;13.73;;;15.50;99.90;;;;;;6245478;23;20066;-66
2023/06/24 02:28:30;;;;;;;21.80;13.43;;;15.50;99.90;;;;;;6243372;23;20028;-65
2023/06/24 02:30:58;;;;;;;17.77;12.95;;;15.50;99.90;;;;;;6245441;23;20031;-66
2023/06/24 02:33:26;;;;;;;19.45;12.60;;;15.50;99.90;;;;;;6244040;23;20020;-66
2023/06/24 02:35:53;;;;;;;18.45;12.85;;;15.50;99.90;;;;;;6243049;23;20031;-66
2023/06/24 02:38:21;;;;;;;20.15;14.02;;;15.50;99.90;;;;;;6245285;23;20031;-66
2023/06/24 02:40:49;;;;;;;17.98;13.60;;;15.40;99.90;;;;;;6245385;22;20027;-66
2023/06/24 02:43:17;;;;;;;21.25;13.70;;;15.40;99.90;;;;;;6242445;23;20028;-66
2023/06/24 02:45:45;;;;;;;20.08;13.48;;;15.40;99.90;;;;;;6245183;23;20024;-67
2023/06/24 02:48:13;;;;;;;18.52;13.27;;;15.30;99.90;;;;;;6245081;23;20028;-66
2023/06/24 02:50:41;;;;;;;23.38;13.77;;;15.40;99.90;;;;;;6242862;23;20024;-66
2023/06/24 02:53:08;;;;;;;18.08;13.95;;;15.30;99.90;;;;;;6245097;23;20055;-65
2023/06/24 02:55:37;;;;;;;18.45;12.48;;;15.20;99.90;;;;;;6244467;23;20020;-65
2023/06/24 02:58:07;;;;;;;18.70;13.82;;;15.30;99.90;;;;;;6243031;23;20078;-66
2023/06/24 03:00:34;;;;;;;17.92;12.05;;;15.30;99.90;;;;;;6243391;23;20410;-67
2023/06/24 03:03:02;;;;;;;19.80;12.70;;;15.30;99.90;;;;;;6242155;23;20032;-65
2023/06/24 03:05:31;;;;;;;17.52;12.88;;;15.20;99.90;;;;;;6243098;23;20016;-67
2023/06/24 03:07:58;;;;;;;17.45;13.27;;;15.20;99.90;;;;;;6243035;23;20050;-65
2023/06/24 03:10:25;;;;;;;20.20;13.90;;;15.20;99.90;;;;;;6244358;23;20020;-66
2023/06/24 03:12:54;;;;;;;17.38;12.23;;;15.20;99.90;;;;;;6243041;23;20461;-66
2023/06/24 03:15:21;;;;;;;16.33;12.18;;;15.20;99.90;;;;;;6245049;23;20108;-66
2023/06/24 03:17:48;;;;;;;17.10;12.45;;;15.20;99.90;;;;;;6244619;23;20393;-66
2023/06/24 03:20:15;;;;;;;15.57;11.13;;;15.20;99.90;;;;;;6245127;22;20027;-66
2023/06/24 03:22:43;;;;;;;18.25;12.05;;;15.20;99.90;;;;;;6244962;23;20458;-68
2023/06/24 03:25:09;;;;;;;19.35;11.52;;;15.30;99.90;;;;;;6244279;23;20024;-67
2023/06/24 03:27:36;;;;;;;16.80;12.05;;;15.30;99.90;;;;;;6243474;23;20020;-66
2023/06/24 03:30:06;;;;;;;16.60;10.77;;;15.30;99.90;;;;;;6245062;23;20078;-66
2023/06/24 03:32:34;;;;;;;17.13;11.15;;;15.30;99.90;;;;;;6244704;22;20028;-66
2023/06/24 03:35:02;;;;;;;15.77;11.13;;;15.30;99.90;;;;;;6242982;23;20401;-65
2023/06/24 03:37:28;;;;;;;16.80;11.52;;;15.30;99.90;;;;;;6244936;23;20024;-66
2023/06/24 03:39:57;;;;;;;18.20;11.82;;;15.30;99.90;;;;;;6243845;23;20423;-65
2023/06/24 03:42:24;;;;;;;15.32;11.35;;;15.30;99.90;;;;;;6245319;23;20078;-66
2023/06/24 03:44:50;;;;;;;16.48;10.80;;;15.40;99.90;;;;;;6244302;23;20020;-65
2023/06/24 03:47:19;;;;;;;15.85;10.77;;;15.40;99.90;;;;;;6245073;23;20020;-65
2023/06/24 03:49:45;;;;;;;15.43;10.25;;;15.40;99.90;;;;;;6244713;22;20028;-65
2023/06/24 03:52:12;;;;;;;14.40;10.75;;;15.40;99.90;;;;;;6242569;23;20066;-66
2023/06/24 03:54:39;;;;;;;15.43;10.52;;;15.40;99.90;;;;;;6243768;23;20074;-66
2023/06/24 03:57:07;;;;;;;15.68;10.60;;;15.50;99.90;;;;;;6246918;23;20035;-65
2023/06/24 03:59:34;;;;;;;17.67;9.90;;;15.50;99.90;;;;;;6244430;23;20028;-66
2023/06/24 04:02:01;;;;;;;14.13;10.15;;;15.60;99.90;;;;;;6246957;23;20066;-66
2023/06/24 04:04:29;;;;;;;13.00;9.48;;;15.60;99.90;;;;;;6247277;23;20024;-65
2023/06/24 04:06:56;;;;;;;13.52;9.90;;;15.60;99.90;;;;;;6245956;23;20098;-65
2023/06/24 04:09:23;;;;;;;14.90;9.80;;;15.70;99.90;;;;;;6246924;23;20028;-66
2023/06/24 04:11:50;;;;;;;11.98;9.15;;;15.70;99.90;;;;;;6246499;23;20457;-66
2023/06/24 04:14:17;;;;;;;13.15;9.73;;;15.80;99.90;;;;;;6246233;23;20024;-66
2023/06/24 04:16:44;;;;;;;13.20;8.75;;;15.80;99.90;;;;;;6244936;23;20021;-66
2023/06/24 04:19:11;;;;;;;15.52;9.07;;;15.80;99.90;;;;;;6246846;23;20020;-66
2023/06/24 04:21:39;;;;;;;13.93;8.82;;;15.90;99.90;;;;;;6244526;23;20099;-67
2023/06/24 04:24:06;;;;;;;15.60;9.45;;;15.90;99.90;;;;;;6246766;22;20086;-66
2023/06/24 04:26:33;;;;;;;10.68;8.48;;;16.00;99.90;;;;;;6246342;23;20024;-66
2023/06/24 04:29:00;;;;;;;11.98;9.27;;;16.00;99.90;;;;;;6244376;23;20028;-66
2023/06/24 04:31:27;;;;;;;14.10;8.95;;;16.10;99.90;;;;;;6244948;23;20392;-67
2023/06/24 04:33:54;;;;;;;12.90;9.02;;;16.20;99.90;;;;;;6244785;23;20396;-68
2023/06/24 04:36:21;;;;;;;11.68;8.95;;;16.20;99.90;;;;;;6244441;23;20020;-68
2023/06/24 04:38:50;;;;;;;11.57;8.55;;;16.40;99.90;;;;;;6246230;23;20099;-66
2023/06/24 04:41:18;;;;;;;15.65;9.13;;;16.40;99.90;;;;;;6244048;23;20103;-67
2023/06/24 04:43:45;;;;;;;12.27;8.50;;;16.60;99.90;;;;;;6246717;23;20047;-68
2023/06/24 04:46:12;;;;;;;11.65;8.45;;;16.70;99.90;;;;;;6244464;23;20024;-69
2023/06/24 04:48:38;;;;;;;10.77;8.80;;;16.70;99.90;;;;;;6245899;23;20020;-68
2023/06/24 04:51:05;;;;;;;12.07;8.48;;;16.70;99.90;;;;;;6244389;23;20081;-68
2023/06/24 04:53:33;;;;;;;12.45;8.50;;;16.80;99.90;;;;;;6244759;23;20024;-68
2023/06/24 04:56:01;;;;;;;11.13;9.13;;;16.80;99.90;;;;;;6243894;23;20417;-68
2023/06/24 04:58:28;;;;;;;12.88;8.43;;;16.70;99.90;;;;;;6246525;22;20028;-66
2023/06/24 05:00:55;;;;;;;12.13;9.25;;;16.80;99.90;;;;;;6244349;23;20024;-66
2023/06/24 05:03:22;;;;;;;11.88;8.45;;;16.90;99.90;;;;;;6245760;23;20353;-66
2023/06/24 05:05:49;;;;;;;26.88;9.23;;;16.90;99.90;;;;;;6244210;23;20085;-66
2023/06/24 05:08:16;;;;;;;11.82;8.13;;;17.00;99.90;;;;;;6244400;23;20384;-68
2023/06/24 05:10:43;;;;;;;11.75;8.55;;;17.10;99.90;;;;;;6245371;23;20035;-67
2023/06/24 05:13:11;;;;;;;13.57;9.20;;;17.10;99.90;;;;;;6246198;23;20020;-68
2023/06/24 05:15:38;;;;;;;10.80;8.40;;;17.20;99.90;;;;;;6244362;23;20024;-66
2023/06/24 05:18:05;;;;;;;10.73;8.63;;;17.30;99.90;;;;;;6243714;23;20027;-66
2023/06/24 05:20:32;;;;;;;14.00;9.00;;;17.40;99.90;;;;;;6244212;23;20070;-66
2023/06/24 05:22:59;;;;;;;13.77;8.65;;;17.50;99.90;;;;;;6244228;23;20090;-65
2023/06/24 05:25:25;;;;;;;12.05;9.00;;;17.60;99.90;;;;;;6242848;23;20024;-65
2023/06/24 05:27:52;;;;;;;16.00;9.40;;;17.80;99.90;;;;;;6245490;23;20020;-65
2023/06/24 05:30:21;;;;;;;12.27;8.40;;;18.00;99.90;;;;;;6243298;23;20031;-65
2023/06/24 05:32:47;;;;;;;13.48;9.27;;;18.10;99.90;;;;;;6245423;23;20032;-65
2023/06/24 05:35:14;;;;;;;11.57;8.38;;;18.30;99.90;;;;;;6241089;23;20324;-65
2023/06/24 05:37:41;;;;;;;15.70;9.65;;;18.40;99.90;;;;;;6241901;23;20031;-66
2023/06/24 05:40:09;;;;;;;11.07;8.63;;;18.60;99.90;;;;;;6244220;23;20474;-65
2023/06/24 05:42:36;;;;;;;13.50;8.52;;;18.80;99.90;;;;;;6242898;23;20028;-66
2023/06/24 05:45:03;;;;;;;15.13;8.25;;;18.90;99.90;;;;;;6244176;23;20082;-65
2023/06/24 05:47:32;;;;;;;12.70;8.65;;;19.10;99.90;;;;;;6242964;23;20393;-66
2023/06/24 05:49:59;;;;;;;11.30;7.75;;;19.40;99.90;;;;;;6243196;23;20051;-65
2023/06/24 05:52:26;;;;;;;13.85;9.52;;;19.60;99.90;;;;;;6242277;23;20024;-67
2023/06/24 05:54:53;;;;;;;10.85;8.25;;;20.10;99.90;;;;;;6244728;23;20024;-65
2023/06/24 05:57:19;;;;;;;12.48;8.38;;;20.20;99.90;;;;;;6244830;23;20019;-65
2023/06/24 05:59:46;;;;;;;11.68;8.52;;;20.30;99.90;;;;;;6244133;23;20031;-65
2023/06/24 06:02:13;;;;;;;14.82;9.73;;;20.50;99.90;;;;;;6242718;23;20020;-65
2023/06/24 06:04:42;;;;;;;11.18;8.43;;;20.60;99.90;;;;;;6245103;23;20024;-64
2023/06/24 06:07:09;;;;;;;11.32;9.00;;;20.80;99.90;;;;;;6244091;23;20095;-65
2023/06/24 06:09:36;;;;;;;11.27;8.95;;;20.90;99.90;;;;;;6243180;23;20024;-65
2023/06/24 06:12:03;;;;;;;11.32;9.05;;;21.00;99.90;;;;;;6242866;23;20028;-66
2023/06/24 06:14:30;;;;;;;12.60;7.90;;;21.10;99.90;;;;;;6242194;23;20461;-67
2023/06/24 06:16:57;;;;;;;13.68;8.45;;;21.30;99.90;;;;;;6244109;23;20396;-66
2023/06/24 06:19:24;;;;;;;11.57;8.82;;;21.40;99.90;;;;;;6244799;23;20032;-65
2023/06/24 06:21:53;;;;;;;13.32;8.27;;;21.50;99.90;;;;;;6244304;23;20035;-65
2023/06/24 06:24:19;;;;;;;12.52;8.10;;;21.60;99.90;;;;;;6242246;23;20349;-64
2023/06/24 06:26:46;;;;;;;10.20;7.95;;;21.70;99.90;;;;;;6243772;23;20225;-66
2023/06/24 06:29:13;;;;;;;10.98;7.75;;;21.80;99.90;;;;;;6242698;23;20020;-65
2023/06/24 06:31:40;;;;;;;11.05;8.00;;;21.80;99.90;;;;;;6242763;23;20024;-65
2023/06/24 06:34:08;;;;;;;10.48;7.55;;;21.90;99.90;;;;;;6241733;23;20026;-66
2023/06/24 06:36:35;;;;;;;9.65;7.30;;;21.90;99.90;;;;;;6244904;23;20024;-65
2023/06/24 06:39:03;;;;;;;9.55;7.15;;;22.00;99.90;;;;;;6244016;23;20024;-65
2023/06/24 06:41:30;;;;;;;12.85;7.20;;;22.00;99.90;;;;;;6243854;23;20103;-65
2023/06/24 06:43:57;;;;;;;11.27;7.45;;;22.20;99.90;;;;;;6241256;23;20031;-66
2023/06/24 06:46:24;;;;;;;10.38;7.50;;;22.30;99.90;;;;;;6243560;22;20020;-66
2023/06/24 06:48:52;;;;;;;10.05;7.38;;;22.40;99.90;;;;;;6242648;23;20438;-67
2023/06/24 06:51:20;;;;;;;11.02;7.70;;;22.60;99.90;;;;;;6242010;23;20078;-65
2023/06/24 06:53:46;;;;;;;9.57;7.15;;;22.70;99.90;;;;;;6242522;23;20024;-65
2023/06/24 06:56:19;;;;;;;8.30;7.13;;;22.70;99.90;;;;;;6243823;23;20035;-65
2023/06/24 06:58:46;;;;;;;9.73;7.22;;;22.80;99.90;;;;;;6242283;23;20030;-66
2023/06/24 07:01:13;;;;;;;9.35;7.32;;;23.00;99.90;;;;;;6244428;23;20028;-65
2023/06/24 07:03:40;;;;;;;10.15;7.07;;;23.00;99.90;;;;;;6241731;23;20031;-64
2023/06/24 07:06:07;;;;;;;8.98;6.53;;;23.10;99.90;;;;;;6242464;23;20032;-64
2023/06/24 07:08:35;;;;;;;8.20;6.28;;;23.20;99.90;;;;;;6244489;23;20020;-65
2023/06/24 07:11:02;;;;;;;10.98;6.50;;;23.20;99.90;;;;;;6241328;23;20529;-66
2023/06/24 07:13:30;;;;;;;9.73;6.10;;;23.30;99.90;;;;;;6242655;23;20098;-66
2023/06/24 07:15:57;;;;;;;13.07;6.50;;;23.40;99.90;;;;;;6243688;23;20088;-65
2023/06/24 07:18:24;;;;;;;8.30;6.53;;;23.50;99.90;;;;;;6244497;23;20024;-66
2023/06/24 07:20:54;;;;;;;7.55;5.93;;;23.70;99.90;;;;;;6242130;23;20023;-65
2023/06/24 07:23:21;;;;;;;9.33;6.83;;;23.90;99.90;;;;;;6243898;23;20024;-65
2023/06/24 07:25:48;;;;;;;8.95;6.68;;;24.00;99.90;;;;;;6244102;23;20258;-65
2023/06/24 07:28:15;;;;;;;10.65;6.32;;;24.20;99.90;;;;;;6243046;23;20490;-65
2023/06/24 07:30:43;;;;;;;9.68;6.20;;;24.30;99.90;;;;;;6243455;23;20057;-66
2023/06/24 07:33:10;;;;;;;9.88;6.28;;;24.60;99.90;;;;;;6244843;23;20081;-65
2023/06/24 07:35:37;;;;;;;7.97;5.68;;;25.00;99.90;;;;;;6242622;23;20031;-65
2023/06/24 07:38:04;;;;;;;9.10;6.07;;;25.40;99.90;;;;;;6240490;23;20027;-65
2023/06/24 07:40:31;;;;;;;7.53;5.05;;;25.70;99.90;;;;;;6242370;23;20028;-65
2023/06/24 07:42:58;;;;;;;6.25;5.00;;;25.90;99.90;;;;;;6244162;23;20032;-64
2023/06/24 07:45:25;;;;;;;7.72;5.45;;;26.10;98.90;;;;;;6242596;23;20032;-65
2023/06/24 07:47:53;;;;;;;10.05;5.70;;;26.20;97.90;;;;;;6243739;23;20020;-65
2023/06/24 07:50:21;;;;;;;6.80;5.03;;;26.40;97.30;;;;;;6243412;23;20102;-65
2023/06/24 07:52:47;;;;;;;7.32;5.25;;;26.60;96.70;;;;;;6243219;23;20024;-65
2023/06/24 07:55:15;;;;;;;7.40;5.07;;;26.60;95.50;;;;;;6243563;23;20466;-66
2023/06/24 07:57:46;;;;;;;8.57;5.22;;;26.70;95.30;;;;;;6243826;23;20445;-66
2023/06/24 08:00:14;;;;;;;7.13;5.25;;;26.90;95.00;;;;;;6244601;23;20062;-65
2023/06/24 08:02:41;;;;;;;6.78;5.40;;;27.20;95.30;;;;;;6243644;23;20034;-65
2023/06/24 08:05:10;;;;;;;6.45;4.72;;;27.40;94.60;;;;;;6245076;23;20024;-65
2023/06/24 08:07:38;;;;;;;7.63;5.05;;;27.70;93.50;;;;;;6245023;23;20016;-66
2023/06/24 08:10:06;;;;;;;8.07;5.32;;;28.10;93.80;;;;;;6243915;23;20020;-66
2023/06/24 08:12:33;;;;;;;7.53;4.97;;;28.00;93.00;;;;;;6244696;23;20337;-66
2023/06/24 08:14:59;;;;;;;6.60;5.70;;;28.00;92.80;;;;;;6243575;23;20024;-65
2023/06/24 08:17:26;;;;;;;10.57;5.55;;;27.80;92.60;;;;;;6243514;23;20031;-66
2023/06/24 08:19:53;;;;;;;8.52;5.80;;;27.80;92.60;;;;;;6243092;23;20027;-65
2023/06/24 08:22:21;;;;;;;7.43;5.28;;;27.70;92.60;;;;;;6245314;23;20358;-64
2023/06/24 08:24:48;;;;;;;7.32;5.22;;;27.70;92.70;;;;;;6243844;23;20028;-65
2023/06/24 08:27:15;;;;;;;8.18;4.70;;;27.50;92.60;;;;;;6244800;23;20020;-65
2023/06/24 08:29:42;;;;;;;6.38;4.55;;;27.70;92.90;;;;;;6243598;23;20024;-66
2023/06/24 08:32:09;;;;;;;6.18;4.72;;;27.70;92.80;;;;;;6245046;23;20028;-65
2023/06/24 08:34:36;;;;;;;8.52;4.82;;;27.80;92.60;;;;;;6243148;23;20462;-65
2023/06/24 08:37:03;;;;;;;8.02;5.03;;;27.70;92.50;;;;;;6244746;23;20346;-65
2023/06/24 08:39:31;;;;;;;7.93;4.50;;;28.40;92.40;;;;;;6244671;23;20039;-66
2023/06/24 08:41:58;;;;;;;7.32;4.30;;;28.70;92.10;;;;;;6242914;23;20024;-65
2023/06/24 08:44:25;;;;;;;7.63;5.28;;;29.00;92.00;;;;;;6243354;23;20032;-66
2023/06/24 08:46:52;;;;;;;8.50;5.43;;;29.50;91.30;;;;;;6245354;23;20086;-65
2023/06/24 08:49:29;;;;;;;6.88;4.53;;;29.50;89.90;;;;;;6242730;23;20323;-66
2023/06/24 08:52:04;;;;;;;6.63;4.78;;;29.50;89.40;;;;;;6244896;23;20016;-66
2023/06/24 08:54:36;;;;;;;7.10;4.22;;;29.30;89.90;;;;;;6244131;23;20074;-66
2023/06/24 08:57:05;;;;;;;9.82;5.18;;;29.70;89.20;;;;;;6245787;23;20381;-65
2023/06/24 08:59:32;;;;;;;6.43;4.55;;;29.60;90.00;;;;;;6242624;23;20127;-65
2023/06/24 09:01:59;;;;;;;9.20;4.90;;;29.70;89.60;;;;;;6243137;23;20079;-65
2023/06/24 09:04:26;;;;;;;6.53;4.32;;;30.00;87.10;;;;;;6244611;23;20477;-65
2023/06/24 09:06:52;;;;;;;8.30;4.90;;;29.90;88.30;;;;;;6245359;23;20025;-65
2023/06/24 09:09:20;;;;;;;6.63;4.53;;;30.00;88.10;;;;;;6242208;23;20094;-66
2023/06/24 09:11:56;;;;;;;7.85;4.47;;;30.40;87.50;;;;;;6244780;23;20024;-65
2023/06/24 09:14:23;;;;;;;6.50;4.38;;;31.20;87.00;;;;;;6242674;23;20402;-65
2023/06/24 09:16:54;;;;;;;5.85;4.35;;;31.40;85.70;;;;;;6244603;23;20473;-66
2023/06/24 09:19:22;;;;;;;6.75;4.82;;;31.30;84.40;;;;;;6244538;23;20031;-65
2023/06/24 09:21:49;;;;;;;8.60;4.38;;;31.40;84.50;;;;;;6245127;23;20071;-66
2023/06/24 09:24:16;;;;;;;6.65;4.22;;;31.40;82.80;;;;;;6244293;23;20099;-66
2023/06/24 09:26:44;;;;;;;8.27;4.68;;;31.70;83.70;;;;;;6243066;23;20036;-66
2023/06/24 09:29:14;;;;;;;7.50;4.30;;;32.10;83.10;;;;;;6242723;23;20446;-66
2023/06/24 09:31:52;;;;;;;6.00;4.32;;;32.50;83.40;;;;;;6242226;23;20028;-66
2023/06/24 09:34:20;;;;;;;14.00;4.40;;;32.90;81.30;;;;;;6244453;23;20058;-65
2023/06/24 09:36:52;;;;;;;8.40;4.80;;;32.70;81.80;;;;;;6242624;23;20020;-65
2023/06/24 09:39:21;;;;;;;8.20;4.60;;;32.90;80.30;;;;;;6244701;23;20016;-65
2023/06/24 09:41:50;;;;;;;6.07;4.63;;;33.00;81.90;;;;;;6244400;22;20077;-66
2023/06/24 09:44:19;;;;;;;8.40;4.97;;;32.80;81.20;;;;;;6243449;23;20028;-66
2023/06/24 09:46:47;;;;;;;6.93;4.70;;;32.80;81.00;;;;;;6245625;23;20397;-66
2023/06/24 09:49:14;;;;;;;5.32;4.03;;;33.10;80.90;;;;;;6245984;23;20409;-66
2023/06/24 09:51:44;;;;;;;8.18;4.55;;;32.90;80.10;;;;;;6245397;23;20028;-67
2023/06/24 09:54:13;;;;;;;7.63;4.55;;;32.80;80.20;;;;;;6244501;23;20361;-66
2023/06/24 09:56:44;;;;;;;5.65;4.32;;;33.10;79.70;;;;;;6244347;23;20028;-66
2023/06/24 09:59:12;;;;;;;7.53;4.70;;;33.30;79.10;;;;;;6244282;23;20038;-66
2023/06/24 10:01:43;;;;;;;5.15;4.00;;;33.20;79.10;;;;;;6244319;23;20327;-66
2023/06/24 10:04:14;;;;;;;5.07;3.50;;;33.30;77.90;;;;;;6245910;23;20453;-66
2023/06/24 10:06:40;;;;;;;7.85;3.20;;;33.60;78.10;;;;;;6245292;23;20082;-65
2023/06/24 10:09:07;;;;;;;6.72;3.35;;;33.50;77.40;;;;;;6245548;23;20392;-66
2023/06/24 10:11:34;;;;;;;6.35;3.42;;;33.70;77.10;;;;;;6244135;23;20023;-65
2023/06/24 10:14:02;;;;;;;6.38;3.40;;;33.50;76.40;;;;;;6245080;23;20036;-66
2023/06/24 10:16:29;;;;;;;8.40;3.53;;;33.90;76.60;;;;;;6245852;23;20352;-66
2023/06/24 10:19:02;;;;;;;5.53;3.67;;;33.80;76.50;;;;;;6243204;23;20453;-67
2023/06/24 10:21:47;;;;;;;4.85;3.70;;;33.90;75.20;;;;;;6245969;23;20127;-66
2023/06/24 10:24:28;;;;;;;6.57;3.33;;;34.10;73.90;;;;;;6245930;22;20024;-67
2023/06/24 10:26:55;;;;;;;7.72;3.42;;;34.00;75.10;;;;;;6243118;23;20473;-66
2023/06/24 10:29:32;;;;;;;4.35;3.10;;;34.30;75.00;;;;;;6245551;23;20020;-67
2023/06/24 10:32:04;;;;;;;4.65;3.10;;;34.40;72.70;;;;;;6245527;23;20031;-65
2023/06/24 10:34:41;;;;;;;5.18;3.00;;;34.00;73.80;;;;;;6243106;23;20024;-66
2023/06/24 10:37:13;;;;;;;4.95;3.45;;;34.40;73.10;;;;;;6243947;23;20093;-65
2023/06/24 10:39:54;;;;;;;4.57;3.05;;;34.50;73.10;;;;;;6243658;23;20020;-66
2023/06/24 10:42:31;;;;;;;6.22;3.50;;;34.60;73.60;;;;;;6245806;23;20118;-66
2023/06/24 10:44:59;;;;;;;4.30;3.15;;;34.90;72.60;;;;;;6245998;23;20028;-65
2023/06/24 10:47:28;;;;;;;4.70;3.53;;;35.00;73.30;;;;;;6244623;23;20457;-66
2023/06/24 10:49:56;;;;;;;7.38;3.47;;;35.00;72.90;;;;;;6245500;23;20323;-67
2023/06/24 10:52:24;;;;;;;7.47;3.92;;;35.30;73.10;;;;;;6245625;23;20030;-66
2023/06/24 10:54:52;;;;;;;4.18;3.08;;;35.10;73.10;;;;;;6243374;23;20024;-66
2023/06/24 10:57:24;;;;;;;4.43;3.40;;;35.00;72.60;;;;;;6243727;23;20030;-66
2023/06/24 10:59:52;;;;;;;5.03;3.38;;;35.00;72.10;;;;;;6243608;23;20418;-66
2023/06/24 11:02:20;;;;;;;7.32;3.55;;;34.80;72.50;;;;;;6244732;23;20028;-66
2023/06/24 11:04:48;;;;;;;5.85;3.20;;;34.70;72.80;;;;;;6245103;23;20024;-65
2023/06/24 11:07:18;;;;;;;4.85;3.47;;;34.80;73.30;;;;;;6245566;23;20028;-67
2023/06/24 11:09:49;;;;;;;4.68;2.88;;;35.40;73.10;;;;;;6244527;23;20023;-67
2023/06/24 11:12:16;;;;;;;5.65;3.03;;;35.40;72.00;;;;;;6243587;23;20481;-67
2023/06/24 11:14:43;;;;;;;6.25;3.22;;;35.50;71.90;;;;;;6243135;23;20028;-66
2023/06/24 11:17:10;;;;;;;5.45;3.30;;;35.50;71.40;;;;;;6237944;23;20097;-66
2023/06/24 11:19:39;;;;;;;7.70;3.90;;;35.80;71.10;;;;;;6244172;23;20021;-67
2023/06/24 11:22:06;;;;;;;3.92;2.47;;;35.60;71.10;;;;;;6243323;23;20024;-65
2023/06/24 11:24:35;;;;;;;4.07;2.83;;;35.50;70.00;;;;;;6244589;23;20027;-65
2023/06/24 11:27:03;;;;;;;;;;;35.50;70.50;;;;;;6244303;23;20484;-65
2023/06/24 11:29:30;;;;;;;4.70;2.90;;;35.40;71.90;;;;;;6241514;23;19916;-66
2023/06/24 11:31:57;;;;;;;5.63;3.70;;;35.30;71.50;;;;;;6244440;23;20024;-66
2023/06/24 11:34:25;;;;;;;7.22;3.38;;;35.30;71.40;;;;;;6244164;22;20028;-66
2023/06/24 11:36:52;;;;;;;8.93;4.03;;;35.90;71.80;;;;;;6243372;23;20024;-67
2023/06/24 11:39:23;;;;;;;6.82;4.13;;;35.70;71.80;;;;;;6243639;23;20024;-65
2023/06/24 11:41:52;;;;;;;7.57;4.35;;;35.70;70.90;;;;;;6242538;23;20357;-66
2023/06/24 11:44:20;;;;;;;;;;;35.50;71.40;;;;;;6243486;23;20032;-66
2023/06/24 11:46:47;;;;;;;7.22;3.10;;;35.40;70.90;;;;;;6242515;23;19950;-66
2023/06/24 11:49:14;;;;;;;5.20;3.17;;;35.70;72.10;;;;;;6242132;23;20024;-66
2023/06/24 11:51:47;;;;;;;4.43;2.70;;;36.30;71.10;;;;;;6240876;23;20031;-65
2023/06/24 11:54:16;;;;;;;4.15;2.42;;;36.20;67.90;;;;;;6243449;23;20401;-66
2023/06/24 11:56:45;;;;;;;7.90;3.00;;;36.60;68.00;;;;;;6242257;23;20082;-67
2023/06/24 11:59:20;;;;;;;3.55;2.58;;;36.90;67.90;;;;;;6242754;23;20397;-66
2023/06/24 12:01:54;;;;;;;6.82;3.17;;;36.40;67.40;;;;;;6244261;23;20027;-66
2023/06/24 12:04:21;;;;;;;10.82;2.95;;;35.40;68.20;;;;;;6243078;23;20382;-66
2023/06/24 12:06:48;;;;;;;5.43;2.83;;;35.00;68.90;;;;;;6242112;23;20031;-64
2023/06/24 12:09:15;;;;;;;5.78;2.97;;;35.50;69.40;;;;;;6244353;23;20337;-64
2023/06/24 12:11:42;;;;;;;6.28;2.88;;;35.50;69.00;;;;;;6242352;23;20142;-65
2023/06/24 12:14:09;;;;;;;4.25;3.03;;;35.70;68.20;;;;;;6243248;23;20020;-65
2023/06/24 12:16:39;;;;;;;4.80;2.92;;;35.20;69.10;;;;;;6242921;23;20028;-66
2023/06/24 12:19:06;;;;;;;4.45;3.05;;;35.30;68.80;;;;;;6244831;22;20485;-66
2023/06/24 12:21:33;;;;;;;5.13;3.15;;;35.30;69.00;;;;;;6244923;22;20082;-65
2023/06/24 12:23:59;;;;;;;4.55;2.70;;;35.20;68.50;;;;;;6246624;23;20028;-65
2023/06/24 12:26:26;;;;;;;5.22;3.03;;;35.10;68.70;;;;;;6244916;23;20028;-65
2023/06/24 12:28:55;;;;;;;4.55;3.00;;;34.30;69.50;;;;;;6245930;23;20070;-65
2023/06/24 12:31:22;;;;;;;5.18;2.97;;;34.80;69.50;;;;;;6243246;23;20078;-66
2023/06/24 12:33:51;;;;;;;5.35;3.33;;;35.10;68.90;;;;;;6245073;23;20028;-66
2023/06/24 12:36:18;;;;;;;4.30;2.90;;;34.90;68.60;;;;;;6243641;23;20024;-66
2023/06/24 12:38:45;;;;;;;6.05;3.00;;;34.40;68.80;;;;;;6245692;23;20020;-65
2023/06/24 12:41:12;;;;;;;4.75;2.72;;;33.90;69.50;;;;;;6242918;23;20027;-66
2023/06/24 12:43:39;;;;;;;4.25;2.70;;;33.60;69.90;;;;;;6245627;23;20027;-65
2023/06/24 12:46:05;;;;;;;4.38;3.00;;;33.90;71.00;;;;;;6243482;23;20024;-65